Terminal Aerodrome Forecast
Issued by NWS

Home | Current Version | Previous Version | Text Only | Print | Product List | Glossary On
Versions: 1 2 3 4 5 6 7 8 9 10 11 12 13 14 15 16 17 18 19 20 21 22 23 24 25 26
000
FTUS45 KREV 282323
TAFRNO
TAF
KRNO 282323Z 2900/2924 25014G24KT P6SM SCT140 OVC200
     FM290400 25008KT P6SM SCT150 BKN200 WS020/20035KT
     FM291100 20012G20KT P6SM SCT200
     FM291700 21025G40KT P6SM SCT120 SCT180 WS020/24045KT
     FM292300 24018G28KT P6SM SCT120 BKN200=

USA.gov is the U.S. government's official web portal to all federal, state and local government web resources and services.